GCC Virtual Airport Information Service

London Heathrow Airport

ICAO: EGLL Country: GB
Latitude: 51.4706 Longitude: -0.461941
Latest Arrival : KAC101 (OKBK-EGLL) Latest Departure : KAC102 (EGLL-OKBK)


WX CaptureLIVE
Data provided by noaa.gov | Fetched at 13:08:29

METAR : EGLL 051250Z AUTO 07009KT 9999 OVC041 05/M03 Q1033 NOSIG

TAF : EGLL 051057Z 0512/0618 04008KT 9999 SCT040 PROB30 0604/0609 8000


Runway Data for EGLL
Data provided by openaviationdata.com

Runway ID Mag Var Hdg Length Elevation Surface ILS Freq ILS Id ILS Slope
09L -1 90° 13160 ft 83 ft Asphalt 110.3 IAA 3
09R -1 91° 12396 ft 83 ft Asphalt 109.5 IBB 3
27L -1 271° 12396 ft 83 ft Asphalt 109.5 ILL 3
27R -1 270° 13160 ft 83 ft Asphalt 110.3 IRR 3

London Heathrow Airport, GB
Use only for reference purposes



Not for navigational purposes.